createdAt,value
2023-02-17T00:02:22.510Z,98871.56
2023-02-17T00:05:26.775Z,98866.25
2023-02-17T00:08:29.362Z,98866.84
2023-02-17T00:11:32.557Z,98857.09
2023-02-17T00:14:35.219Z,98858.38
2023-02-17T00:17:39.256Z,98861.81
2023-02-17T00:20:41.894Z,98868.38
2023-02-17T00:23:45.414Z,98868.72
2023-02-17T00:26:48.557Z,98857.38
2023-02-17T00:29:51.290Z,98861.50
2023-02-17T00:32:54.478Z,98875.16
2023-02-17T00:35:57.144Z,98867.38
2023-02-17T00:39:00.401Z,98862.00
2023-02-17T00:42:03.356Z,98859.41
2023-02-17T00:45:06.858Z,98855.94
2023-02-17T00:48:11.134Z,98853.00
2023-02-17T00:51:15.556Z,98855.81
2023-02-17T00:54:19.119Z,98852.19
2023-02-17T00:57:21.983Z,98845.47
2023-02-17T01:00:24.749Z,98834.72
2023-02-17T01:03:29.680Z,98839.31
2023-02-17T01:06:35.485Z,98836.94
2023-02-17T01:09:38.226Z,98838.94
2023-02-17T01:12:40.946Z,98839.72
2023-02-17T01:15:50.372Z,98836.84
2023-02-17T01:18:53.704Z,98837.97
2023-02-17T01:21:57.164Z,98838.63
2023-02-17T01:25:00.969Z,98836.47
2023-02-17T01:28:05.075Z,98829.34
2023-02-17T01:31:12.766Z,98824.81
2023-02-17T01:34:16.209Z,98817.94
2023-02-17T01:37:19.529Z,98816.28
2023-02-17T01:40:22.980Z,98817.69
2023-02-17T01:43:26.866Z,98821.09
2023-02-17T01:46:33.312Z,98830.72
2023-02-17T01:49:39.063Z,98829.56
2023-02-17T01:52:42.573Z,98835.78
2023-02-17T01:55:46.910Z,98834.59
2023-02-17T01:58:57.511Z,98814.09
2023-02-17T02:02:04.280Z,98815.91
2023-02-17T02:05:07.202Z,98809.72
2023-02-17T02:08:11.832Z,98800.72
2023-02-17T02:11:15.077Z,98796.31
2023-02-17T02:14:19.267Z,98801.22
2023-02-17T02:17:44.538Z,98806.03
2023-02-17T02:21:14.737Z,98810.16
2023-02-17T02:24:23.431Z,98809.38
2023-02-17T02:27:50.209Z,98815.13
2023-02-17T02:31:18.149Z,98802.06
2023-02-17T02:34:25.206Z,98804.31
2023-02-17T02:37:41.691Z,98797.50
2023-02-17T02:40:53.032Z,98796.50
2023-02-17T02:43:56.158Z,98789.19
2023-02-17T02:47:02.347Z,98804.09
2023-02-17T02:50:05.421Z,98791.78
2023-02-17T02:53:29.762Z,98802.00
2023-02-17T02:56:37.138Z,98797.56
2023-02-17T03:00:01.246Z,98804.00
2023-02-17T03:03:21.088Z,98805.31
2023-02-17T03:06:31.903Z,98796.59
2023-02-17T03:09:35.287Z,98803.72
2023-02-17T03:12:38.979Z,98806.34
2023-02-17T03:15:42.647Z,98802.72
2023-02-17T03:18:47.726Z,98802.59
2023-02-17T03:21:58.428Z,98795.44
2023-02-17T03:25:01.554Z,98798.16
2023-02-17T03:28:06.382Z,98789.75
2023-02-17T03:31:08.903Z,98795.78
2023-02-17T03:34:12.062Z,98793.31
2023-02-17T03:37:14.888Z,98791.53
2023-02-17T03:40:17.633Z,98783.59
2023-02-17T03:43:20.766Z,98789.75
2023-02-17T03:46:23.406Z,98787.78
2023-02-17T03:49:26.092Z,98779.41
2023-02-17T03:52:28.940Z,98778.16
2023-02-17T03:55:31.686Z,98782.28
2023-02-17T03:58:35.140Z,98773.72
2023-02-17T04:01:37.982Z,98767.66
2023-02-17T04:04:40.729Z,98774.84
2023-02-17T04:07:43.560Z,98772.78
2023-02-17T04:10:46.508Z,98774.34
2023-02-17T04:13:49.170Z,98768.69
2023-02-17T04:16:52.064Z,98770.41
2023-02-17T04:19:54.901Z,98771.41
2023-02-17T04:22:57.623Z,98772.97
2023-02-17T04:26:00.253Z,98763.63
2023-02-17T04:29:05.271Z,98767.31
2023-02-17T04:32:08.052Z,98766.63
2023-02-17T04:35:10.653Z,98767.06
2023-02-17T04:38:13.919Z,98746.59
2023-02-17T04:41:16.612Z,98757.44
2023-02-17T04:44:19.451Z,98747.63
2023-02-17T04:47:23.085Z,98758.78
2023-02-17T04:50:25.990Z,98759.13
2023-02-17T04:53:28.524Z,98751.25
2023-02-17T04:56:31.119Z,98753.63
2023-02-17T04:59:34.124Z,98751.31
2023-02-17T05:02:37.088Z,98749.59
2023-02-17T05:05:39.898Z,98751.09
2023-02-17T05:08:42.791Z,98761.94
2023-02-17T05:11:45.466Z,98756.06
2023-02-17T05:14:48.297Z,98757.59
2023-02-17T05:17:50.834Z,98760.06
2023-02-17T05:20:53.843Z,98755.59
2023-02-17T05:23:56.422Z,98753.00
2023-02-17T05:26:59.135Z,98753.69
2023-02-17T05:30:01.757Z,98759.84
2023-02-17T05:33:04.535Z,98751.91
2023-02-17T05:36:09.330Z,98757.91
2023-02-17T05:39:13.049Z,98760.13
2023-02-17T05:42:15.638Z,98760.63
2023-02-17T05:45:18.609Z,98766.50
2023-02-17T05:48:21.828Z,98770.88
2023-02-17T05:51:24.714Z,98766.91
2023-02-17T05:54:28.302Z,98766.00
2023-02-17T05:57:31.887Z,98766.25
2023-02-17T06:00:34.738Z,98766.66
2023-02-17T06:03:37.909Z,98774.94
2023-02-17T06:06:40.777Z,98765.44
2023-02-17T06:09:44.003Z,98765.84
2023-02-17T06:12:47.849Z,98760.88
2023-02-17T06:15:50.793Z,98763.53
2023-02-17T06:18:53.730Z,98758.09
2023-02-17T06:21:57.469Z,98758.88
2023-02-17T06:25:00.125Z,98763.78
2023-02-17T06:28:03.443Z,98765.16
2023-02-17T06:31:06.432Z,98772.09
2023-02-17T06:34:09.426Z,98769.19
2023-02-17T06:37:12.677Z,98763.13
2023-02-17T06:40:15.737Z,98750.91
2023-02-17T06:43:18.982Z,98745.94
2023-02-17T06:46:21.767Z,98749.38
2023-02-17T06:49:25.202Z,98741.28
2023-02-17T06:52:28.172Z,98747.50
2023-02-17T06:55:31.651Z,98745.75
2023-02-17T06:58:36.743Z,98742.66
2023-02-17T07:01:40.078Z,98742.50
2023-02-17T07:04:43.197Z,98745.09
2023-02-17T07:07:46.111Z,98742.78
2023-02-17T07:10:49.160Z,98742.59
2023-02-17T07:13:51.901Z,98733.25
2023-02-17T07:16:55.206Z,98736.09
2023-02-17T07:20:02.140Z,98748.38
2023-02-17T07:23:04.824Z,98741.97
2023-02-17T07:26:10.761Z,98738.97
2023-02-17T07:29:13.548Z,98745.22
2023-02-17T07:32:16.400Z,98754.97
2023-02-17T07:35:19.185Z,98755.06
2023-02-17T07:38:22.577Z,98759.56
2023-02-17T07:41:28.862Z,98755.28
2023-02-17T07:44:31.612Z,98761.53
2023-02-17T07:47:34.513Z,98750.22
2023-02-17T07:50:37.195Z,98739.91
2023-02-17T07:53:40.476Z,98745.75
2023-02-17T07:56:43.345Z,98756.19
2023-02-17T07:59:47.647Z,98762.41
2023-02-17T08:02:50.682Z,98751.34
2023-02-17T08:05:53.297Z,98746.84
2023-02-17T08:09:15.534Z,98755.38
2023-02-17T08:12:39.374Z,98745.91
2023-02-17T08:15:42.183Z,98742.66
2023-02-17T08:18:45.674Z,98734.38
2023-02-17T08:21:48.388Z,98740.63
2023-02-17T08:24:52.794Z,98738.16
2023-02-17T08:27:55.457Z,98743.63
2023-02-17T08:31:00.270Z,98757.88
2023-02-17T08:34:06.304Z,98756.47
2023-02-17T08:37:09.815Z,98762.41
2023-02-17T08:40:12.518Z,98759.91
2023-02-17T08:43:16.211Z,98762.56
2023-02-17T08:46:20.031Z,98755.88
2023-02-17T08:49:25.828Z,98756.72
2023-02-17T08:52:28.571Z,98755.94
2023-02-17T08:55:44.108Z,98744.13
2023-02-17T08:58:51.859Z,98734.03
2023-02-17T09:01:55.396Z,98740.16
2023-02-17T09:04:58.442Z,98730.19
2023-02-17T09:08:01.556Z,98740.50
2023-02-17T09:11:04.376Z,98744.50
2023-02-17T09:14:07.476Z,98740.72
2023-02-17T09:17:10.899Z,98747.25
2023-02-17T09:20:24.237Z,98724.47
2023-02-17T09:23:27.833Z,98725.00
2023-02-17T09:26:31.142Z,98732.09
2023-02-17T09:29:33.763Z,98729.25
2023-02-17T09:32:37.493Z,98726.91
2023-02-17T09:35:41.249Z,98734.47
2023-02-17T09:38:44.299Z,98731.47
2023-02-17T09:41:52.361Z,98732.66
2023-02-17T09:45:00.440Z,98732.09
2023-02-17T09:48:07.195Z,98723.97
2023-02-17T09:51:31.609Z,98732.25
2023-02-17T09:54:45.303Z,98728.84
2023-02-17T09:58:04.297Z,98722.09
2023-02-17T10:01:12.746Z,98732.69
2023-02-17T10:04:21.094Z,98728.97
2023-02-17T10:07:34.389Z,98723.81
2023-02-17T10:10:49.742Z,98725.66
2023-02-17T10:13:55.729Z,98736.75
2023-02-17T10:17:31.115Z,98732.13
2023-02-17T10:20:38.062Z,98714.13
2023-02-17T10:23:41.167Z,98715.06
2023-02-17T10:27:04.227Z,98704.19
2023-02-17T10:30:33.921Z,98714.69
2023-02-17T10:33:54.934Z,98704.94
2023-02-17T10:37:06.952Z,98695.59
2023-02-17T10:40:15.756Z,98692.88
2023-02-17T10:43:29.706Z,98696.69
2023-02-17T10:46:32.918Z,98681.66
2023-02-17T10:49:40.810Z,98677.94
2023-02-17T10:52:43.977Z,98684.44
2023-02-17T10:56:14.851Z,98683.50
2023-02-17T10:59:22.563Z,98675.25
2023-02-17T11:02:39.600Z,98667.00
2023-02-17T11:05:42.798Z,98672.91
2023-02-17T11:08:51.809Z,98661.22
2023-02-17T11:11:58.162Z,98652.59
2023-02-17T11:15:04.544Z,98658.72
2023-02-17T11:18:16.833Z,98647.91
2023-02-17T11:21:19.934Z,98649.16
2023-02-17T11:24:23.278Z,98646.88
2023-02-17T11:27:26.737Z,98654.84
2023-02-17T11:30:31.861Z,98641.09
2023-02-17T11:33:40.648Z,98640.66
2023-02-17T11:36:46.704Z,98626.53
2023-02-17T11:39:53.715Z,98632.81
2023-02-17T11:43:01.726Z,98628.63
2023-02-17T11:46:17.132Z,98629.81
2023-02-17T11:49:39.210Z,98612.50
2023-02-17T11:53:06.572Z,98623.63
2023-02-17T11:56:19.775Z,98607.88
2023-02-17T11:59:30.422Z,98609.19
2023-02-17T12:02:51.937Z,98607.72
2023-02-17T12:06:28.843Z,98597.91
2023-02-17T12:09:50.907Z,98584.63
2023-02-17T12:13:12.238Z,98579.91
2023-02-17T12:16:46.277Z,98581.16
2023-02-17T12:20:10.320Z,98585.50
2023-02-17T12:23:37.314Z,98589.59
2023-02-17T12:26:50.622Z,98588.38
2023-02-17T12:30:20.429Z,98584.09
2023-02-17T12:33:48.398Z,98586.38
2023-02-17T12:36:52.386Z,98580.09
2023-02-17T12:40:02.682Z,98590.50
2023-02-17T12:43:26.136Z,98584.00
2023-02-17T12:46:47.335Z,98578.50
2023-02-17T12:49:55.710Z,98565.34
2023-02-17T12:53:03.363Z,98561.88
2023-02-17T12:56:33.788Z,98561.13
2023-02-17T12:59:50.761Z,98565.94
2023-02-17T13:02:59.493Z,98552.66
2023-02-17T13:06:24.584Z,98551.72
2023-02-17T13:09:36.273Z,98549.25
2023-02-17T13:12:41.092Z,98541.94
2023-02-17T13:15:47.596Z,98542.59
2023-02-17T13:18:52.632Z,98530.09
2023-02-17T13:21:57.361Z,98526.91
2023-02-17T13:25:00.060Z,98519.06
2023-02-17T13:28:04.927Z,98507.69
2023-02-17T13:31:17.117Z,98523.59
2023-02-17T13:34:28.666Z,98512.88
2023-02-17T13:37:34.713Z,98503.03
2023-02-17T13:40:40.920Z,98491.53
2023-02-17T13:43:43.840Z,98505.38
2023-02-17T13:46:47.548Z,98490.88
2023-02-17T13:49:55.559Z,98503.97
2023-02-17T13:52:59.377Z,98506.94
2023-02-17T13:56:09.859Z,98502.03
2023-02-17T13:59:18.795Z,98494.16
2023-02-17T14:02:35.536Z,98494.13
2023-02-17T14:05:43.702Z,98485.81
2023-02-17T14:08:46.421Z,98483.56
2023-02-17T14:11:50.638Z,98479.84
2023-02-17T14:14:53.365Z,98487.63
2023-02-17T14:17:57.288Z,98493.78
2023-02-17T14:21:11.551Z,98499.50
2023-02-17T14:24:39.053Z,98488.50
2023-02-17T14:27:47.794Z,98478.41
2023-02-17T14:30:51.310Z,98482.34
2023-02-17T14:34:00.960Z,98477.47
2023-02-17T14:37:27.840Z,98446.31
2023-02-17T14:40:30.788Z,98444.63
2023-02-17T14:43:34.201Z,98457.44
2023-02-17T14:46:37.666Z,98447.22
2023-02-17T14:49:41.140Z,98453.44
2023-02-17T14:52:52.660Z,98436.69
2023-02-17T14:56:02.948Z,98437.97
2023-02-17T14:59:05.910Z,98443.16
2023-02-17T15:02:20.865Z,98449.81
2023-02-17T15:05:24.390Z,98449.81
2023-02-17T15:08:32.863Z,98446.09
2023-02-17T15:11:37.941Z,98446.09
2023-02-17T15:14:40.662Z,98438.81
2023-02-17T15:17:43.763Z,98435.06
2023-02-17T15:20:50.739Z,98437.53
2023-02-17T15:23:54.072Z,98418.22
2023-02-17T15:26:56.755Z,98422.28
2023-02-17T15:29:59.538Z,98414.44
2023-02-17T15:33:02.928Z,98408.09
2023-02-17T15:36:06.775Z,98406.56
2023-02-17T15:39:11.859Z,98411.00
2023-02-17T15:42:14.916Z,98409.59
2023-02-17T15:45:19.268Z,98405.16
2023-02-17T15:48:30.631Z,98398.94
2023-02-17T15:51:33.704Z,98398.94
2023-02-17T15:54:36.564Z,98397.00
2023-02-17T15:57:43.569Z,98401.63
2023-02-17T16:00:47.037Z,98387.38
2023-02-17T16:03:50.114Z,98392.00
2023-02-17T16:06:52.793Z,98389.97
2023-02-17T16:09:55.825Z,98380.22
2023-02-17T16:13:01.332Z,98384.59
2023-02-17T16:16:05.161Z,98385.50
2023-02-17T16:19:12.527Z,98382.19
2023-02-17T16:22:15.807Z,98376.38
2023-02-17T16:25:20.139Z,98384.97
2023-02-17T16:28:23.078Z,98382.28
2023-02-17T16:31:26.137Z,98395.16
2023-02-17T16:34:32.573Z,98381.81
2023-02-17T16:37:35.420Z,98365.50
2023-02-17T16:40:47.333Z,98369.75
2023-02-17T16:43:50.377Z,98365.69
2023-02-17T16:46:55.032Z,98363.84
2023-02-17T16:49:58.132Z,98367.34
2023-02-17T16:53:03.090Z,98361.94
2023-02-17T16:56:20.051Z,98369.09
2023-02-17T16:59:24.595Z,98360.78
2023-02-17T17:02:28.650Z,98366.06
2023-02-17T17:05:34.715Z,98365.88
2023-02-17T17:08:38.337Z,98363.47
2023-02-17T17:11:42.334Z,98345.78
2023-02-17T17:14:45.669Z,98349.22
2023-02-17T17:17:59.356Z,98356.34
2023-02-17T17:21:02.755Z,98350.69
2023-02-17T17:24:07.045Z,98343.53
2023-02-17T17:27:12.623Z,98342.00
2023-02-17T17:30:21.103Z,98359.22
2023-02-17T17:33:26.822Z,98355.50
2023-02-17T17:36:43.412Z,98361.31
2023-02-17T17:39:47.608Z,98349.34
2023-02-17T17:42:52.092Z,98347.44
2023-02-17T17:46:00.318Z,98347.44
2023-02-17T17:49:06.278Z,98357.94
2023-02-17T17:52:10.120Z,98342.91
2023-02-17T17:55:14.553Z,98351.56
2023-02-17T17:58:18.502Z,98342.00
2023-02-17T18:01:25.404Z,98343.06
2023-02-17T18:04:29.214Z,98339.72
2023-02-17T18:07:36.147Z,98322.13
2023-02-17T18:10:42.085Z,98334.16
2023-02-17T18:13:48.567Z,98308.94
2023-02-17T18:16:52.467Z,98310.25
2023-02-17T18:19:56.691Z,98302.81
2023-02-17T18:23:00.182Z,98306.19
2023-02-17T18:26:10.662Z,98310.78
2023-02-17T18:29:15.588Z,98311.41
2023-02-17T18:32:22.632Z,98307.81
2023-02-17T18:35:26.656Z,98314.66
2023-02-17T18:38:32.087Z,98309.47
2023-02-17T18:41:35.883Z,98321.31
2023-02-17T18:44:39.077Z,98313.38
2023-02-17T18:47:43.374Z,98319.31
2023-02-17T18:50:47.981Z,98310.59
2023-02-17T18:53:55.088Z,98302.63
2023-02-17T18:56:59.406Z,98301.47
2023-02-17T19:00:04.532Z,98282.03
2023-02-17T19:03:09.613Z,98267.94
2023-02-17T19:06:16.894Z,98272.72
2023-02-17T19:09:22.655Z,98279.97
2023-02-17T19:12:27.210Z,98284.88
2023-02-17T19:15:31.987Z,98285.91
2023-02-17T19:18:36.301Z,98285.56
2023-02-17T19:21:40.816Z,98303.94
2023-02-17T19:24:51.496Z,98308.63
2023-02-17T19:27:57.517Z,98304.28
2023-02-17T19:31:03.213Z,98293.91
2023-02-17T19:34:07.508Z,98297.47
2023-02-17T19:37:13.437Z,98291.63
2023-02-17T19:40:21.360Z,98286.97
2023-02-17T19:43:26.220Z,98277.72
2023-02-17T19:46:30.031Z,98293.28
2023-02-17T19:49:35.548Z,98272.94
2023-02-17T19:52:39.536Z,98286.75
2023-02-17T19:55:45.873Z,98280.75
2023-02-17T19:58:51.085Z,98287.50
2023-02-17T20:01:57.484Z,98275.25
2023-02-17T20:05:03.377Z,98282.19
2023-02-17T20:08:13.880Z,98270.03
2023-02-17T20:11:22.147Z,98275.44
2023-02-17T20:14:28.917Z,98275.44
2023-02-17T20:17:34.447Z,98258.75
2023-02-17T20:20:39.088Z,98257.81
2023-02-17T20:23:45.420Z,98257.06
2023-02-17T20:26:52.921Z,98255.94
2023-02-17T20:29:57.955Z,98252.41
2023-02-17T20:33:03.908Z,98240.16
2023-02-17T20:36:09.178Z,98246.28
2023-02-17T20:39:12.917Z,98255.94
2023-02-17T20:42:15.971Z,98250.31
2023-02-17T20:45:18.799Z,98249.81
2023-02-17T20:48:27.784Z,98253.66
2023-02-17T20:51:31.653Z,98248.38
2023-02-17T20:54:35.026Z,98238.19
2023-02-17T20:57:38.674Z,98235.78
2023-02-17T21:00:42.546Z,98245.88
2023-02-17T21:03:47.157Z,98246.19
2023-02-17T21:06:52.012Z,98250.34
2023-02-17T21:09:55.817Z,98247.84
2023-02-17T21:12:59.222Z,98244.09
2023-02-17T21:16:02.618Z,98224.78
2023-02-17T21:19:06.161Z,98226.25
2023-02-17T21:22:09.681Z,98212.72
2023-02-17T21:25:13.331Z,98226.34
2023-02-17T21:28:20.229Z,98227.91
2023-02-17T21:31:26.662Z,98205.25
2023-02-17T21:34:30.341Z,98207.84
2023-02-17T21:37:34.565Z,98214.28
2023-02-17T21:40:37.838Z,98210.97
2023-02-17T21:44:00.061Z,98203.38
2023-02-17T21:47:03.160Z,98216.88
2023-02-17T21:50:09.295Z,98213.13
2023-02-17T21:53:13.569Z,98192.88
2023-02-17T21:56:18.071Z,98200.78
2023-02-17T21:59:21.771Z,98207.75
2023-02-17T22:02:25.008Z,98201.09
2023-02-17T22:05:31.816Z,98197.25
2023-02-17T22:08:35.035Z,98202.94
2023-02-17T22:11:40.985Z,98195.69
2023-02-17T22:14:44.017Z,98181.75
2023-02-17T22:17:48.647Z,98190.38
2023-02-17T22:20:51.762Z,98179.44
2023-02-17T22:23:54.901Z,98180.59
2023-02-17T22:26:58.257Z,98184.97
2023-02-17T22:30:01.081Z,98195.34
2023-02-17T22:33:04.887Z,98176.75
2023-02-17T22:36:10.873Z,98182.56
2023-02-17T22:39:13.979Z,98191.50
2023-02-17T22:42:17.286Z,98187.97
2023-02-17T22:45:20.166Z,98182.78
2023-02-17T22:48:23.533Z,98184.00
2023-02-17T22:51:32.752Z,98176.81
2023-02-17T22:54:35.660Z,98182.56
2023-02-17T22:57:38.508Z,98181.81
2023-02-17T23:00:41.321Z,98164.72
2023-02-17T23:03:45.314Z,98168.69
2023-02-17T23:06:48.129Z,98158.03
2023-02-17T23:09:51.548Z,98163.47
2023-02-17T23:12:54.300Z,98156.38
2023-02-17T23:15:57.046Z,98169.28
2023-02-17T23:19:00.345Z,98165.13
2023-02-17T23:22:07.488Z,98159.00
2023-02-17T23:25:11.875Z,98157.13
2023-02-17T23:28:14.739Z,98165.75
2023-02-17T23:31:17.689Z,98166.97
2023-02-17T23:34:20.489Z,98160.41
2023-02-17T23:37:23.355Z,98156.28
2023-02-17T23:40:26.221Z,98146.81
2023-02-17T23:43:29.105Z,98132.00
2023-02-17T23:46:32.077Z,98133.69
2023-02-17T23:49:34.699Z,98119.75
2023-02-17T23:52:37.609Z,98130.09
2023-02-17T23:55:40.499Z,98121.59
2023-02-17T23:58:43.555Z,98107.41
